Latest Coastal Weather Observations for Point Perpendicular

IDN60701

Issued at 8:35 am EST Friday 25 April 2014 (issued every 10 minutes, with the page automatically refreshed every 10 minutes)

About coastal observations | Map of coastal stations | Coastal observations for NSW | Marine services | Other Formats
Station Details ID: 068151 Name: POINT PERPENDICULAR AWS Lat: -35.09 Lon: 150.80 Height: 85.0 m
Data from the previous 72 hours. | See also: Recent months at Point Perpendicular
Date/Time
EST
Temp

°C
Wind Pressure Rain
since 9am
mm
Weather Cloud Vis
km
Sea
Height
m
Swell
Dir
 
Speed
knots
Gust
knots
hPa Trend Height
m
Period
s
Dir
25/08:30am 15.8 SW 5 9 1023.1 - 0.2 - - - - - - -
25/08:00am 16.1 SSW 7 11 1022.4 - 0.2 - - - - - - -
25/07:30am 15.6 SW 9 13 1022.4 - 0.2 - - - - - - -
25/07:00am 17.3 SSW 7 11 1022.1 - 0.2 - - - - - - -
25/06:30am 17.1 S 7 11 1021.8 - 0.2 - - - - - - -
25/06:00am 17.0 S 9 14 1021.4 - 0.2 Rain - - - - - -
25/05:30am 17.7 S 8 14 1021.0 - 0.0 - - - - - - -
25/05:00am 17.8 S 8 14 1020.5 - 0.0 - - - - - - -
25/04:30am 17.8 S 11 17 1020.3 - 0.0 - - - - - - -
25/04:00am 17.8 SSE 10 16 1020.0 - 0.0 - - - - - - -
25/03:30am 17.7 S 13 21 1020.1 - 0.0 - - - - - - -
25/03:00am 17.8 S 10 16 1020.1 - 0.0 - - - - - - -
25/02:30am 17.7 S 11 19 1020.3 - 0.0 - - - - - - -
25/02:00am 17.7 S 13 19 1020.1 - 0.0 - - - - - - -
25/01:30am 17.7 SSE 12 19 1020.1 - 0.0 - - - - - - -
25/01:00am 17.9 SSE 13 21 1019.9 - 0.0 - - - - - - -
25/12:30am 17.9 SSE 14 23 1020.1 - 0.0 - - - - - - -
25/12:00am 17.9 SSE 13 23 1019.5 - 0.0 - - - - - - -
 
Date/Time
EST
Temp

°C
Wind Pressure Rain
since 9am
mm
Weather Cloud Vis
km
Sea
Height
m
Swell
Dir
 
Speed
knots
Gust
knots
hPa Trend Height
m
Period
s
Dir
24/11:30pm 17.8 SSE 12 18 1019.6 - 0.0 - - - - - - -
24/11:00pm 18.2 SSE 13 22 1019.2 - 0.0 - - - - - - -
24/10:30pm 18.3 SSE 12 19 1019.2 - 0.0 - - - - - - -
24/10:00pm 18.1 SSE 15 23 1018.6 - 0.0 - - - - - - -
24/09:30pm 18.4 SSE 13 22 1018.4 - 0.0 - - - - - - -
24/09:00pm 18.5 SSE 15 22 1018.1 - 0.0 - - - - - - -
24/08:33pm 18.9 S 15 25 1017.8 - 0.0 - - - - - - -
24/08:30pm 18.9 S 16 25 1017.6 - 0.0 - - - - - - -
24/08:23pm 18.9 SSE 15 25 1017.6 - 0.0 - - - - - - -
24/08:00pm 19.2 SSE 15 22 1016.7 - 0.0 - - - - - - -
24/07:35pm 19.4 SSE 15 25 1016.2 - 0.0 - - - - - - -
24/07:30pm 19.5 SSE 15 23 1016.2 - 0.0 - - - - - - -
24/07:01pm 19.7 SSE 15 25 1015.3 - 0.0 - - - - - - -
24/07:00pm 19.7 SSE 14 25 1015.0 - 0.0 - - - - - - -
24/06:30pm 20.4 SSE 15 25 1014.3 - 0.0 - - - - - - -
24/06:00pm 22.8 W 6 9 1014.1 - 0.0 - - - - - - -
24/05:30pm 23.5 W 7 12 1013.5 - 0.0 - - - - - - -
24/05:00pm 23.9 W 7 12 1012.8 - 0.0 - - - - - - -
24/04:30pm 24.4 W 10 15 1012.5 - 0.0 - - - - - - -
24/04:00pm 25.0 W 10 15 1011.9 - 0.0 - - - - - - -
24/03:30pm 25.1 WNW 11 16 1011.6 - 0.0 - - - - - - -
24/03:00pm 25.5 W 12 21 1011.2 - 0.0 - - - - - - -
24/02:30pm 25.7 W 13 22 1011.2 - 0.0 - - - - - - -
24/02:00pm 25.7 W 14 22 1010.8 - 0.0 - - - - - - -
24/01:30pm 25.6 W 11 18 1010.9 - 0.0 - - - - - - -
24/01:00pm 25.3 W 8 12 1011.0 - 0.0 - - - - - - -
24/12:30pm 24.7 WSW 5 8 1011.6 - 0.0 - - - - - - -
24/12:00pm 24.8 WNW 7 14 1011.9 - 0.0 - - - - - - -
24/11:30am 24.0 NW 5 12 1012.3 - 0.0 - - - - - - -
24/11:00am 22.6 NW 3 5 1012.5 - 0.0 - - - - - - -
24/10:30am 22.0 WNW 6 9 1012.8 - 0.0 - - - - - - -
24/10:00am 21.4 W 6 11 1012.8 - 0.0 - - - - - - -
24/09:30am 21.2 WNW 5 9 1013.0 - 0.0 - - - - - - -
24/09:00am 20.6 NW 6 8 1012.7 - 0.0 - - - - - - -
24/08:30am 20.3 NW 7 11 1012.6 - 0.0 - - - - - - -
24/08:00am 20.2 NW 8 13 1012.1 - 0.0 - - - - - - -
24/07:30am 20.2 NNW 7 12 1012.1 - 0.0 - - - - - - -
24/07:00am 20.6 NW 9 14 1011.6 - 0.0 - - - - - - -
24/06:30am 20.6 NW 9 13 1011.7 - 0.0 - - - - - - -
24/06:00am 20.7 N 7 9 1011.5 - 0.0 - - - - - - -
24/05:30am 18.8 N 7 11 1011.7 - 0.0 - - - - - - -
24/05:00am 19.7 NNW 7 8 1011.6 - 0.0 - - - - - - -
24/04:30am 19.6 NNW 7 9 1011.8 - 0.0 - - - - - - -
24/04:00am 19.7 N 7 9 1011.5 - 0.0 - - - - - - -
24/03:30am 19.5 N 7 8 1011.7 - 0.0 - - - - - - -
24/03:00am 18.9 N 7 8 1011.9 - 0.0 - - - - - - -
24/02:30am 18.7 N 7 8 1012.3 - 0.0 - - - - - - -
24/02:00am 18.7 N 7 8 1012.3 - 0.0 - - - - - - -
24/01:30am 19.2 N 7 9 1012.7 - 0.0 - - - - - - -
24/01:00am 19.3 N 7 8 1012.7 - 0.0 - - - - - - -
24/12:30am 19.6 N 8 9 1013.2 - 0.0 - - - - - - -
24/12:00am 19.8 N 8 9 1013.2 - 0.0 - - - - - - -
 
Date/Time
EST
Temp

°C
Wind Pressure Rain
since 9am
mm
Weather Cloud Vis
km
Sea
Height
m
Swell
Dir
 
Speed
knots
Gust
knots
hPa Trend Height
m
Period
s
Dir
23/11:30pm 19.3 N 7 8 1013.4 - 0.0 - - - - - - -
23/11:00pm 19.9 N 8 9 1013.4 - 0.0 - - - - - - -
23/10:30pm 20.0 N 7 11 1013.9 - 0.0 - - - - - - -
23/10:00pm 20.1 N 9 13 1013.7 - 0.0 - - - - - - -
23/09:30pm 20.2 N 10 13 1014.1 - 0.0 - - - - - - -
23/09:00pm 20.0 N 11 16 1013.9 - 0.0 - - - - - - -
23/08:30pm 19.9 N 11 16 1014.3 - 0.0 - - - - - - -
23/08:00pm 19.9 N 11 16 1014.1 - 0.0 - - - - - - -
23/07:30pm 19.8 N 10 14 1014.4 - 0.0 - - - - - - -
23/07:00pm 19.5 N 9 13 1014.2 - 0.0 - - - - - - -
23/06:30pm 19.3 N 9 11 1014.3 - 0.0 - - - - - - -
23/06:00pm 19.3 NNE 10 12 1014.0 - 0.0 - - - - - - -
23/05:30pm 19.7 N 8 11 1014.2 - 0.0 - - - - - - -
23/05:00pm 20.5 N 8 12 1013.9 - 0.0 - - - - - - -
23/04:30pm 21.5 NNE 9 13 1014.0 - 0.0 - - - - - - -
23/04:00pm 22.2 NE 7 9 1013.8 - 0.0 - - - - - - -
23/03:30pm 22.5 NE 7 9 1014.2 - 0.0 - - - - - - -
23/03:00pm 22.8 ENE 5 8 1014.1 - 0.0 - - - - - - -
23/02:30pm 22.4 ENE 5 8 1014.4 - 0.0 - - - - - - -
23/02:00pm 22.3 ESE 4 7 1014.6 - 0.0 - - - - - - -
23/01:30pm 21.7 SSE 5 9 1015.1 - 0.0 - - - - - - -
23/01:00pm 22.0 S 5 9 1015.2 - 0.0 - - - - - - -
23/12:30pm 22.0 S 5 8 1015.8 - 0.0 - - - - - - -
23/12:00pm 21.6 SSE 6 9 1015.8 - 0.0 - - - - - - -
23/11:30am 20.6 S 7 11 1016.6 - 0.0 - - - - - - -
23/11:00am 20.4 S 7 11 1017.0 - 0.0 - - - - - - -
23/10:30am 20.3 SSW 3 8 1017.3 - 0.0 - - - - - - -
23/10:00am 20.1 SW 4 7 1017.2 - 0.0 - - - - - - -
23/09:30am 19.3 W 5 6 1017.5 - 0.0 - - - - - - -
23/09:00am 18.3 WNW 6 8 1017.2 - 0.0 - - - - - - -
23/08:30am 18.4 W 5 6 1017.4 - 0.0 - - - - - - -
23/08:00am 17.4 W 7 9 1017.0 - 0.0 - - - - - - -
23/07:30am 15.9 WNW 6 9 1016.8 - 0.0 - - - - - - -
23/07:00am 15.5 WNW 6 8 1016.5 - 0.0 - - - - - - -
23/06:30am 14.9 NW 6 7 1016.4 - 0.0 - - - - - - -
23/06:00am 16.2 WNW 6 7 1016.5 - 0.0 - - - - - - -
23/05:30am 16.0 WNW 5 6 1016.5 - 0.0 - - - - - - -
23/05:00am 16.4 W 5 7 1016.2 - 0.0 - - - - - - -
23/04:30am 16.3 W 6 7 1016.3 - 0.0 - - - - - - -
23/04:00am 16.4 W 4 5 1015.8 - 0.0 - - - - - - -
23/03:30am 16.3 WNW 7 8 1015.9 - 0.0 - - - - - - -
23/03:00am 15.8 NW 6 7 1015.7 - 0.0 - - - - - - -
23/02:30am 16.4 WNW 6 8 1016.0 - 0.0 - - - - - - -
23/02:00am 16.1 NW 5 6 1015.7 - 0.0 - - - - - - -
23/01:30am 15.8 NNW 6 7 1016.2 - 0.0 - - - - - - -
23/01:00am 16.5 NW 5 6 1016.1 - 0.0 - - - - - - -
23/12:30am 16.5 WNW 6 7 1016.3 - 0.0 - - - - - - -
23/12:00am 17.4 NW 4 5 1016.1 - 0.0 - - - - - - -
 
Date/Time
EST
Temp

°C
Wind Pressure Rain
since 9am
mm
Weather Cloud Vis
km
Sea
Height
m
Swell
Dir
 
Speed
knots
Gust
knots
hPa Trend Height
m
Period
s
Dir
22/11:30pm 18.2 WNW 4 5 1016.1 - 0.0 - - - - - - -
22/11:00pm 18.8 W 5 6 1016.0 - 0.0 - - - - - - -
22/10:30pm 19.2 WNW 6 11 1016.2 - 0.0 - - - - - - -
22/10:00pm 19.2 W 6 8 1016.0 - 0.0 - - - - - - -
22/09:30pm 19.5 WNW 6 8 1016.3 - 0.0 - - - - - - -
22/09:00pm 19.7 WNW 8 12 1015.9 - 0.0 - - - - - - -
22/08:30pm 20.0 W 9 13 1015.8 - 0.0 - - - - - - -
22/08:00pm 20.3 W 8 12 1015.3 - 0.0 - - - - - - -
22/07:30pm 20.7 W 8 11 1015.4 - 0.0 - - - - - - -
22/07:00pm 20.8 WNW 7 9 1015.1 - 0.0 - - - - - - -
22/06:30pm 21.3 WNW 7 11 1015.0 - 0.0 - - - - - - -
22/06:00pm 21.3 NW 9 12 1014.3 - 0.0 - - - - - - -
22/05:30pm 22.0 NW 9 14 1014.2 - 0.0 - - - - - - -
22/05:00pm 21.3 NNW 7 12 1014.0 - 0.0 - - - - - - -
22/04:30pm 21.5 N 8 12 1014.2 - 0.0 - - - - - - -
22/04:00pm 21.8 N 9 13 1013.9 - 0.0 - - - - - - -
22/03:30pm 22.7 N 9 13 1014.1 - 0.0 - - - - - - -
22/03:00pm 22.8 N 7 12 1013.8 - 0.0 - - - - - - -
22/02:30pm 23.2 N 10 15 1014.1 - 0.0 - - - - - - -
22/02:00pm 24.0 N 10 14 1014.0 - 0.0 - - - - - - -
22/01:30pm 24.0 N 10 15 1014.3 - 0.0 - - - - - - -
22/01:00pm 23.7 N 11 16 1014.5 - 0.0 - - - - - - -
22/12:30pm 23.7 N 9 16 1015.2 - 0.0 - - - - - - -
22/12:00pm 23.4 N 8 14 1015.4 - 0.0 - - - - - - -
22/11:30am 22.8 NNW 8 12 1016.2 - 0.0 - - - - - - -
22/11:00am 22.2 N 10 14 1016.3 - 0.0 - - - - - - -
22/10:30am 21.4 NNW 9 14 1016.8 - 0.0 - - - - - - -
22/10:00am 20.4 NNW 10 15 1016.7 - 0.0 - - - - - - -
22/09:30am 20.7 N 10 15 1017.1 - 0.0 - - - - - - -
22/09:00am 19.2 N 7 11 1017.2 - 0.0 - - - - - - -

Other Formats:

Comma delimited format used in spreadsheet applications
http://www.bom.gov.au/fwo/IDN60701/IDN60701.95940.axf

JavaScript Object Notation format (JSON) in row-major order
http://www.bom.gov.au/fwo/IDN60701/IDN60701.95940.json